createdAt,value
2022-08-22T00:05:42.175Z,8.8
2022-08-22T00:10:42.195Z,8.8
2022-08-22T00:20:42.197Z,8.8
2022-08-22T00:25:42.203Z,8.8
2022-08-22T00:35:45.158Z,8.7
2022-08-22T00:45:42.212Z,8.8
2022-08-22T00:50:42.250Z,8.7
2022-08-22T01:00:42.215Z,8.7
2022-08-22T01:05:42.229Z,8.7
2022-08-22T01:15:42.231Z,8.7
2022-08-22T01:20:42.202Z,8.7
2022-08-22T01:25:42.245Z,8.7
2022-08-22T01:35:42.212Z,8.7
2022-08-22T01:40:53.428Z,8.7
2022-08-22T01:50:42.258Z,8.7
2022-08-22T02:00:42.342Z,8.7
2022-08-22T02:10:42.234Z,8.7
2022-08-22T02:15:44.076Z,8.7
2022-08-22T02:20:42.249Z,8.7
2022-08-22T02:25:42.258Z,8.7
2022-08-22T02:30:42.266Z,8.7
2022-08-22T02:40:42.237Z,8.6
2022-08-22T02:45:42.228Z,8.6
2022-08-22T02:50:42.239Z,8.6
2022-08-22T03:00:42.315Z,8.7
2022-08-22T03:05:42.267Z,8.6
2022-08-22T03:15:48.491Z,8.6
2022-08-22T03:20:42.285Z,8.6
2022-08-22T03:25:42.281Z,8.6
2022-08-22T03:35:42.304Z,8.6
2022-08-22T03:40:42.300Z,8.6
2022-08-22T03:50:42.261Z,8.6
2022-08-22T03:55:42.270Z,8.6
2022-08-22T04:05:42.284Z,8.6
2022-08-22T04:15:42.267Z,8.6
2022-08-22T04:20:42.302Z,8.6
2022-08-22T04:30:42.268Z,8.6
2022-08-22T04:35:42.282Z,8.6
2022-08-22T04:40:42.296Z,8.6
2022-08-22T04:50:43.377Z,8.6
2022-08-22T05:00:42.292Z,8.6
2022-08-22T05:05:42.301Z,8.5
2022-08-22T05:15:42.297Z,8.6
2022-08-22T05:20:42.306Z,8.6
2022-08-22T05:30:42.269Z,8.5
2022-08-22T05:35:44.956Z,8.5
2022-08-22T05:40:42.329Z,8.5
2022-08-22T05:50:42.308Z,8.5
2022-08-22T06:00:42.302Z,8.5
2022-08-22T06:05:42.312Z,8.5
2022-08-22T06:15:42.304Z,8.5
2022-08-22T06:25:42.316Z,8.5
2022-08-22T06:35:42.314Z,8.5
2022-08-22T06:40:42.344Z,8.5
2022-08-22T06:50:42.338Z,8.5
2022-08-22T07:00:42.340Z,8.5
2022-08-22T07:10:42.342Z,8.5
2022-08-22T07:20:42.331Z,8.5
2022-08-22T07:30:42.331Z,8.5
2022-08-22T07:40:42.302Z,8.3
2022-08-22T07:45:42.542Z,8.4
2022-08-22T07:55:49.618Z,8.5
2022-08-22T08:00:42.373Z,8.5
2022-08-22T08:10:42.334Z,8.4
2022-08-22T08:20:42.371Z,8.4
2022-08-22T08:30:42.356Z,8.5
2022-08-22T08:40:42.342Z,8.3
2022-08-22T08:45:42.363Z,8.5
2022-08-22T08:55:42.387Z,8.5
2022-08-22T09:05:42.375Z,8.5
2022-08-22T09:10:42.371Z,8.5
2022-08-22T09:15:42.429Z,8.5
2022-08-22T09:25:42.349Z,8.5
2022-08-22T09:30:42.375Z,8.5
2022-08-22T09:40:42.388Z,8.5
2022-08-22T09:45:42.978Z,8.6
2022-08-22T09:50:42.403Z,8.5
2022-08-22T10:00:42.415Z,8.5
2022-08-22T10:05:44.387Z,8.4
2022-08-22T10:15:42.407Z,8.6
2022-08-22T10:25:42.465Z,8.5
2022-08-22T10:35:42.446Z,8.5
2022-08-22T10:45:42.384Z,8.5
2022-08-22T10:50:42.923Z,8.5
2022-08-22T11:00:46.088Z,8.6
2022-08-22T11:10:42.428Z,8.6
2022-08-22T11:15:42.412Z,8.6
2022-08-22T11:20:42.407Z,8.5
2022-08-22T11:30:44.451Z,8.5
2022-08-22T11:35:42.444Z,8.6
2022-08-22T11:40:42.433Z,8.6
2022-08-22T11:50:42.414Z,8.6
2022-08-22T11:55:42.437Z,8.7
2022-08-22T12:00:42.433Z,8.6
2022-08-22T12:05:42.424Z,8.7
2022-08-22T12:15:42.458Z,8.7
2022-08-22T12:25:44.603Z,8.9
2022-08-22T12:35:42.466Z,8.8
2022-08-22T12:40:43.574Z,8.8
2022-08-22T12:50:42.453Z,8.9
2022-08-22T12:55:42.501Z,8.8
2022-08-22T13:05:42.667Z,8.8
2022-08-22T13:10:42.546Z,8.9
2022-08-22T13:20:43.397Z,8.8
2022-08-22T13:25:42.471Z,8.9
2022-08-22T13:30:42.490Z,8.8
2022-08-22T13:40:42.470Z,8.9
2022-08-22T13:45:42.476Z,8.9
2022-08-22T13:50:53.814Z,8.9
2022-08-22T14:00:56.520Z,8.9
2022-08-22T14:10:44.086Z,8.9
2022-08-22T14:15:45.676Z,8.7
2022-08-22T14:20:42.486Z,9
2022-08-22T14:30:42.509Z,8.9
2022-08-22T14:35:42.492Z,8.9
2022-08-22T14:45:42.490Z,8.9
2022-08-22T14:55:42.511Z,8.9
2022-08-22T15:05:45.542Z,8.9
2022-08-22T15:15:49.751Z,9
2022-08-22T15:25:42.514Z,8.9
2022-08-22T15:30:44.086Z,9
2022-08-22T15:40:42.542Z,9
2022-08-22T15:50:42.539Z,9
2022-08-22T15:55:42.527Z,9
2022-08-22T16:00:43.852Z,9
2022-08-22T16:10:42.556Z,9
2022-08-22T16:15:42.537Z,9
2022-08-22T16:20:42.545Z,9
2022-08-22T16:30:42.541Z,9
2022-08-22T16:35:42.542Z,9
2022-08-22T16:45:42.539Z,9
2022-08-22T16:50:42.583Z,9.1
2022-08-22T16:55:42.597Z,9.1
2022-08-22T17:05:47.562Z,9.1
2022-08-22T17:15:42.542Z,9.1
2022-08-22T17:20:42.556Z,9.1
2022-08-22T17:25:42.560Z,9.1
2022-08-22T17:35:42.544Z,9.1
2022-08-22T17:40:42.702Z,9.1
2022-08-22T17:50:42.571Z,9.1
2022-08-22T17:55:42.674Z,9.1
2022-08-22T18:05:42.568Z,9.1
2022-08-22T18:10:42.586Z,9.1
2022-08-22T18:20:42.588Z,9
2022-08-22T18:30:42.590Z,9.1
2022-08-22T18:40:49.704Z,9.1
2022-08-22T18:45:44.176Z,9.1
2022-08-22T18:55:42.612Z,9
2022-08-22T19:00:42.598Z,9
2022-08-22T19:05:42.616Z,9
2022-08-22T19:15:42.610Z,9
2022-08-22T19:20:42.612Z,9
2022-08-22T19:30:42.646Z,9
2022-08-22T19:40:42.638Z,9
2022-08-22T19:50:42.623Z,9
2022-08-22T19:55:42.618Z,8.9
2022-08-22T20:00:42.682Z,8.9
2022-08-22T20:10:42.626Z,8.9
2022-08-22T20:15:42.643Z,9.1
2022-08-22T20:20:42.655Z,9
2022-08-22T20:25:44.179Z,8.9
2022-08-22T20:35:42.653Z,9
2022-08-22T20:40:54.639Z,9
2022-08-22T20:50:42.654Z,9
2022-08-22T21:00:42.746Z,8.9
2022-08-22T21:05:42.677Z,8.9
2022-08-22T21:15:42.660Z,8.9
2022-08-22T21:25:42.665Z,8.9
2022-08-22T21:30:42.686Z,8.9
2022-08-22T21:35:42.690Z,8.9
2022-08-22T21:45:42.699Z,8.9
2022-08-22T21:50:42.689Z,8.8
2022-08-22T22:00:48.950Z,8.9
2022-08-22T22:05:42.713Z,8.8
2022-08-22T22:15:42.699Z,8.9
2022-08-22T22:25:42.682Z,8.8
2022-08-22T22:30:42.677Z,8.8
2022-08-22T22:40:42.697Z,8.8
2022-08-22T22:50:42.690Z,8.8
2022-08-22T22:55:42.711Z,8.8
2022-08-22T23:05:42.712Z,8.8
2022-08-22T23:15:42.729Z,8.8
2022-08-22T23:25:42.729Z,8.8
2022-08-22T23:30:42.745Z,8.8
2022-08-22T23:40:42.723Z,8.7
2022-08-22T23:45:42.743Z,8.7
2022-08-22T23:55:42.693Z,8.7
